KBNW/BNW METAR and TAF weather

Enter ICAO airport designator
Station Type Date Time Source
KBNW METAR 2021/07/24 19:55 UTC NOAA

KBNW 241955Z AUTO 35007KT 10SM FEW043 FEW095 33/23 A2995 RMK AO2


Station Type Date Time Source
KBNW Decoded METAR 2021/07/24 19:55 UTC NOAA

Boone Municipal, IA, United States (KBNW) 42-03N 093-51W
Jul 24, 2021 - 03:55 PM EDT / 2021.07.24 1955 UTC
Wind: from the N (350 degrees) at 8 MPH (7 KT):0
Visibility: 10 mile(s):0
Sky conditions: mostly clear
Temperature: 91 F (33 C)
Heat index: 99.1 F (37.3 C):1
Dew Point: 73 F (23 C)
Relative Humidity: 55%
Pressure (altimeter): 29.95 in. Hg (1014 hPa)
ob: KBNW 241955Z AUTO 35007KT 10SM FEW043 FEW095 33/23 A2995 RMK AO2
cycle: 20

Station Type Date Time Source
KBNW TAF UTC NOAA

Error!

Example: see airport list